Terminal Aerodrome Forecast
Issued by NWS

Home | Current Version | Previous Version | Text Only | Print | Product List | Glossary On
Versions: 1 2 3 4 5 6 7 8 9 10 11 12
000
FTUS46 KMTR 260500
TAFSJC
TAF
KSJC 260524Z 2606/2706 VRB03KT P6SM SCT250
     FM261200 14005KT P6SM SCT250
     FM261900 28005KT P6SM BKN250
     FM270400 VRB03KT P6SM BKN250=

USA.gov is the U.S. government's official web portal to all federal, state and local government web resources and services.